createdAt,value
2019-01-24T00:01:24.526Z,45.87
2019-01-24T00:04:29.792Z,58.20
2019-01-24T00:07:35.025Z,51.17
2019-01-24T00:10:40.179Z,51.73
2019-01-24T00:13:45.297Z,49.67
2019-01-24T00:16:51.468Z,46.47
2019-01-24T00:19:56.613Z,46.97
2019-01-24T00:23:02.607Z,50.70
2019-01-24T00:26:07.759Z,51.70
2019-01-24T00:29:12.854Z,52.77
2019-01-24T00:32:18.133Z,43.53
2019-01-24T00:35:24.041Z,46.07
2019-01-24T00:38:29.223Z,43.03
2019-01-24T00:41:34.524Z,51.73
2019-01-24T00:44:39.594Z,47.80
2019-01-24T00:47:44.801Z,49.17
2019-01-24T00:50:49.907Z,44.97
2019-01-24T00:53:54.973Z,50.30
2019-01-24T00:57:00.117Z,46.70
2019-01-24T01:00:08.463Z,48.93
2019-01-24T01:03:15.169Z,47.63
2019-01-24T01:06:20.266Z,48.07
2019-01-24T01:09:25.369Z,58.43
2019-01-24T01:12:30.583Z,50.93
2019-01-24T01:15:35.775Z,89.70
2019-01-24T01:18:40.925Z,64.50
2019-01-24T01:21:46.014Z,75.30
2019-01-24T01:24:51.290Z,52.87
2019-01-24T01:27:56.439Z,54.30
2019-01-24T01:31:01.612Z,57.73
2019-01-24T01:34:06.757Z,49.10
2019-01-24T01:37:11.940Z,45.40
2019-01-24T01:40:18.015Z,48.37
2019-01-24T01:43:24.295Z,51.37
2019-01-24T01:46:29.540Z,50.47
2019-01-24T01:49:34.696Z,57.47
2019-01-24T01:52:39.804Z,49.90
2019-01-24T01:55:45.017Z,53.20
2019-01-24T01:58:52.209Z,46.13
2019-01-24T02:01:57.344Z,50.97
2019-01-24T02:05:02.491Z,45.03
2019-01-24T02:08:07.599Z,52.10
2019-01-24T02:11:12.823Z,49.00
2019-01-24T02:14:18.031Z,45.07
2019-01-24T02:17:23.165Z,53.20
2019-01-24T02:20:28.355Z,49.30
2019-01-24T02:23:33.500Z,44.20
2019-01-24T02:26:38.694Z,53.53
2019-01-24T02:29:44.011Z,49.57
2019-01-24T02:32:49.213Z,47.17
2019-01-24T02:35:54.494Z,49.53
2019-01-24T02:38:59.552Z,46.97
2019-01-24T02:42:04.725Z,49.20
2019-01-24T02:45:12.032Z,47.23
2019-01-24T02:48:17.244Z,48.33
2019-01-24T02:51:22.434Z,44.70
2019-01-24T02:54:27.562Z,54.17
2019-01-24T02:57:32.726Z,56.17
2019-01-24T03:00:37.856Z,44.97
2019-01-24T03:03:43.087Z,51.67
2019-01-24T03:06:48.216Z,49.27
2019-01-24T03:09:56.559Z,47.93
2019-01-24T03:13:02.731Z,53.23
2019-01-24T03:16:07.860Z,45.00
2019-01-24T03:19:13.107Z,46.37
2019-01-24T03:22:18.224Z,44.30
2019-01-24T03:25:23.393Z,49.10
2019-01-24T03:28:28.532Z,44.83
2019-01-24T03:31:33.705Z,47.43
2019-01-24T03:34:38.814Z,44.60
2019-01-24T03:37:43.977Z,52.83
2019-01-24T03:40:49.153Z,44.70
2019-01-24T03:43:54.306Z,47.87
2019-01-24T03:47:00.407Z,42.53
2019-01-24T03:50:06.282Z,47.33
2019-01-24T03:53:11.481Z,48.43
2019-01-24T03:56:16.601Z,46.33
2019-01-24T03:59:21.659Z,44.10
2019-01-24T04:02:26.969Z,47.50
2019-01-24T04:05:32.130Z,47.53
2019-01-24T04:08:37.299Z,51.23
2019-01-24T04:11:42.490Z,49.67
2019-01-24T04:14:47.624Z,41.93
2019-01-24T04:17:52.935Z,44.77
2019-01-24T04:20:57.997Z,47.07
2019-01-24T04:24:03.182Z,46.27
2019-01-24T04:27:08.411Z,49.67
2019-01-24T04:30:18.583Z,47.20
2019-01-24T04:33:23.880Z,54.93
2019-01-24T04:36:29.078Z,46.30
2019-01-24T04:39:34.271Z,50.60
2019-01-24T04:42:39.373Z,50.33
2019-01-24T04:45:44.471Z,52.93
2019-01-24T04:48:49.624Z,47.13
2019-01-24T04:51:54.735Z,52.00
2019-01-24T04:54:59.919Z,53.73
2019-01-24T04:58:05.112Z,47.97
2019-01-24T05:01:10.370Z,45.80
2019-01-24T05:04:15.607Z,51.87
2019-01-24T05:07:20.757Z,47.03
2019-01-24T05:10:25.873Z,50.80
2019-01-24T05:13:31.074Z,50.47
2019-01-24T05:16:36.219Z,57.07
2019-01-24T05:19:41.674Z,53.83
2019-01-24T05:22:46.814Z,55.40
2019-01-24T05:25:51.904Z,50.77
2019-01-24T05:28:57.104Z,53.83
2019-01-24T05:32:02.246Z,52.77
2019-01-24T05:35:09.184Z,52.00
2019-01-24T05:38:16.194Z,55.90
2019-01-24T05:41:21.349Z,53.10
2019-01-24T05:44:26.471Z,56.37
2019-01-24T05:47:31.787Z,55.27
2019-01-24T05:50:36.945Z,59.87
2019-01-24T05:53:42.043Z,61.87
2019-01-24T05:56:47.187Z,58.93
2019-01-24T05:59:52.411Z,53.97
2019-01-24T06:02:57.546Z,59.07
2019-01-24T06:06:02.708Z,59.00
2019-01-24T06:09:08.644Z,62.47
2019-01-24T06:12:13.754Z,58.70
2019-01-24T06:15:18.944Z,61.10
2019-01-24T06:18:24.082Z,59.57
2019-01-24T06:21:29.195Z,56.23
2019-01-24T06:24:34.339Z,61.57
2019-01-24T06:27:39.505Z,67.43
2019-01-24T06:30:44.635Z,64.33
2019-01-24T06:33:49.824Z,63.00
2019-01-24T06:36:54.954Z,62.33
2019-01-24T06:40:00.117Z,59.40
2019-01-24T06:43:05.271Z,66.20
2019-01-24T06:46:10.548Z,62.53
2019-01-24T06:49:15.816Z,62.53
2019-01-24T06:52:20.990Z,69.10
2019-01-24T06:55:28.026Z,60.97
2019-01-24T06:58:33.191Z,65.77
2019-01-24T07:01:38.287Z,62.73
2019-01-24T07:04:43.567Z,69.17
2019-01-24T07:07:48.928Z,67.83
2019-01-24T07:10:54.042Z,64.57
2019-01-24T07:13:59.161Z,71.67
2019-01-24T07:17:04.326Z,74.63
2019-01-24T07:20:10.602Z,69.90
2019-01-24T07:23:15.697Z,71.10
2019-01-24T07:26:20.841Z,62.77
2019-01-24T07:29:26.049Z,70.57
2019-01-24T07:32:31.282Z,70.47
2019-01-24T07:35:36.389Z,70.67
2019-01-24T07:38:41.584Z,82.60
2019-01-24T07:41:46.804Z,73.80
2019-01-24T07:44:51.904Z,66.50
2019-01-24T07:47:57.034Z,72.40
2019-01-24T07:51:02.223Z,72.10
2019-01-24T07:54:07.306Z,75.10
2019-01-24T07:57:12.549Z,69.17
2019-01-24T08:00:23.247Z,69.67
2019-01-24T08:03:28.435Z,73.73
2019-01-24T08:06:33.549Z,75.87
2019-01-24T08:09:38.756Z,79.57
2019-01-24T08:12:43.806Z,76.40
2019-01-24T08:15:49.019Z,73.97
2019-01-24T08:18:54.330Z,71.00
2019-01-24T08:21:59.509Z,87.67
2019-01-24T08:25:05.217Z,75.47
2019-01-24T08:28:18.206Z,80.03
2019-01-24T08:31:19.177Z,82.27
2019-01-24T08:34:24.475Z,85.10
2019-01-24T08:37:29.574Z,77.57
2019-01-24T08:40:34.738Z,76.10
2019-01-24T08:43:39.823Z,77.70
2019-01-24T08:46:45.004Z,84.50
2019-01-24T08:49:50.098Z,74.43
2019-01-24T08:52:55.376Z,77.83
2019-01-24T08:56:00.542Z,79.03
2019-01-24T08:59:07.495Z,84.40
2019-01-24T09:02:14.216Z,85.57
2019-01-24T09:05:19.677Z,84.30
2019-01-24T09:08:24.854Z,83.83
2019-01-24T09:11:30.033Z,72.97
2019-01-24T09:14:35.191Z,80.07
2019-01-24T09:17:40.444Z,90.20
2019-01-24T09:20:45.587Z,80.53
2019-01-24T09:23:50.803Z,86.70
2019-01-24T09:26:55.955Z,90.17
2019-01-24T09:30:01.188Z,78.77
2019-01-24T09:33:06.369Z,93.17
2019-01-24T09:36:11.546Z,85.33
2019-01-24T09:39:16.689Z,84.60
2019-01-24T09:42:21.798Z,81.27
2019-01-24T09:45:28.596Z,85.97
2019-01-24T09:48:33.781Z,80.17
2019-01-24T09:51:38.969Z,82.93
2019-01-24T09:54:44.090Z,78.07
2019-01-24T09:57:49.260Z,86.07
2019-01-24T10:00:54.491Z,83.43
2019-01-24T10:03:59.676Z,82.63
2019-01-24T10:07:04.779Z,81.00
2019-01-24T10:10:18.536Z,78.50
2019-01-24T10:13:23.759Z,80.00
2019-01-24T10:16:28.905Z,81.80
2019-01-24T10:19:34.125Z,87.30
2019-01-24T10:22:39.287Z,79.00
2019-01-24T10:25:44.406Z,91.83
2019-01-24T10:28:49.643Z,81.63
2019-01-24T10:31:54.780Z,80.93
2019-01-24T10:34:59.934Z,90.93
2019-01-24T10:38:05.356Z,77.00
2019-01-24T10:41:10.516Z,84.20
2019-01-24T10:44:15.675Z,84.80
2019-01-24T10:47:20.844Z,83.97
2019-01-24T10:50:26.483Z,77.00
2019-01-24T10:53:31.652Z,88.77
2019-01-24T10:56:36.751Z,91.37
2019-01-24T10:59:41.910Z,85.47
2019-01-24T11:02:46.999Z,80.47
2019-01-24T11:05:52.140Z,88.43
2019-01-24T11:08:57.316Z,86.13
2019-01-24T11:12:02.406Z,84.03
2019-01-24T11:15:10.563Z,95.03
2019-01-24T11:18:16.813Z,90.03
2019-01-24T11:21:22.021Z,96.93
2019-01-24T11:24:27.189Z,90.77
2019-01-24T11:27:32.358Z,81.77
2019-01-24T11:30:37.499Z,85.57
2019-01-24T11:33:42.658Z,89.63
2019-01-24T11:36:47.829Z,93.63
2019-01-24T11:39:52.945Z,92.93
2019-01-24T11:42:58.058Z,85.13
2019-01-24T11:46:03.199Z,88.27
2019-01-24T11:49:08.361Z,88.77
2019-01-24T11:52:13.611Z,86.63
2019-01-24T11:55:20.114Z,76.97
2019-01-24T11:58:25.309Z,82.13
2019-01-24T12:01:30.469Z,83.20
2019-01-24T12:04:35.616Z,94.37
2019-01-24T12:07:41.781Z,85.57
2019-01-24T12:10:46.904Z,84.73
2019-01-24T12:13:52.104Z,85.20
2019-01-24T12:16:58.411Z,77.87
2019-01-24T12:20:03.534Z,88.57
2019-01-24T12:23:08.702Z,85.93
2019-01-24T12:26:13.782Z,81.33
2019-01-24T12:29:18.929Z,81.43
2019-01-24T12:32:24.102Z,82.47
2019-01-24T12:35:29.436Z,80.00
2019-01-24T12:38:35.692Z,77.80
2019-01-24T12:41:40.943Z,73.97
2019-01-24T12:44:46.053Z,75.87
2019-01-24T12:47:51.258Z,83.67
2019-01-24T12:50:56.377Z,84.60
2019-01-24T12:54:01.567Z,76.17
2019-01-24T12:57:06.694Z,80.80
2019-01-24T13:00:15.402Z,75.30
2019-01-24T13:03:20.536Z,67.53
2019-01-24T13:06:25.680Z,73.03
2019-01-24T13:09:30.870Z,70.27
2019-01-24T13:12:35.982Z,72.03
2019-01-24T13:15:41.258Z,83.07
2019-01-24T13:18:46.433Z,73.73
2019-01-24T13:21:57.706Z,74.87
2019-01-24T13:25:02.852Z,66.60
2019-01-24T13:28:08.325Z,63.37
2019-01-24T13:31:13.452Z,70.23
2019-01-24T13:34:18.575Z,75.33
2019-01-24T13:37:25.855Z,64.57
2019-01-24T13:40:31.812Z,62.57
2019-01-24T13:43:37.103Z,68.23
2019-01-24T13:46:42.262Z,67.67
2019-01-24T13:49:47.453Z,74.70
2019-01-24T13:52:52.812Z,70.43
2019-01-24T13:55:57.990Z,68.63
2019-01-24T13:59:03.422Z,71.87
2019-01-24T14:02:08.591Z,72.80
2019-01-24T14:05:14.864Z,69.63
2019-01-24T14:08:19.950Z,64.33
2019-01-24T14:11:25.171Z,64.53
2019-01-24T14:14:30.344Z,60.37
2019-01-24T14:17:35.442Z,69.97
2019-01-24T14:20:40.636Z,68.13
2019-01-24T14:23:46.850Z,67.37
2019-01-24T14:26:51.980Z,70.07
2019-01-24T14:29:57.154Z,73.43
2019-01-24T14:33:02.271Z,69.93
2019-01-24T14:36:07.754Z,67.93
2019-01-24T14:39:12.966Z,77.03
2019-01-24T14:42:18.135Z,72.87
2019-01-24T14:45:24.158Z,67.50
2019-01-24T14:48:29.321Z,67.27
2019-01-24T14:51:34.466Z,75.63
2019-01-24T14:54:39.581Z,68.80
2019-01-24T14:57:44.890Z,71.60
2019-01-24T15:01:01.839Z,70.93
2019-01-24T15:04:07.004Z,80.67
2019-01-24T15:07:12.253Z,75.90
2019-01-24T15:10:18.419Z,79.70
2019-01-24T15:13:23.779Z,71.13
2019-01-24T15:16:28.977Z,74.90
2019-01-24T15:19:34.170Z,68.63
2019-01-24T15:22:39.342Z,72.57
2019-01-24T15:25:44.985Z,75.07
2019-01-24T15:28:50.341Z,73.13
2019-01-24T15:31:55.527Z,65.77
2019-01-24T15:35:00.765Z,69.10
2019-01-24T15:38:06.059Z,75.07
2019-01-24T15:41:12.714Z,69.00
2019-01-24T15:44:18.117Z,77.90
2019-01-24T15:47:23.331Z,71.93
2019-01-24T15:50:28.548Z,70.33
2019-01-24T15:53:33.741Z,75.33
2019-01-24T15:56:38.945Z,69.97
2019-01-24T15:59:44.137Z,63.13
2019-01-24T16:02:49.491Z,71.23
2019-01-24T16:05:54.679Z,71.33
2019-01-24T16:08:59.922Z,71.33
2019-01-24T16:12:06.694Z,68.00
2019-01-24T16:15:15.194Z,73.73
2019-01-24T16:18:20.355Z,70.23
2019-01-24T16:21:25.546Z,80.20
2019-01-24T16:24:30.687Z,76.43
2019-01-24T16:27:35.877Z,79.10
2019-01-24T16:30:41.067Z,85.30
2019-01-24T16:33:46.222Z,73.30
2019-01-24T16:36:51.428Z,74.63
2019-01-24T16:39:56.573Z,75.70
2019-01-24T16:43:01.857Z,77.23
2019-01-24T16:46:07.142Z,114.13
2019-01-24T16:49:12.270Z,80.47
2019-01-24T16:52:17.364Z,86.07
2019-01-24T16:55:22.883Z,81.97
2019-01-24T16:58:27.974Z,74.17
2019-01-24T17:01:33.178Z,82.27
2019-01-24T17:04:38.333Z,77.67
2019-01-24T17:07:43.489Z,78.43
2019-01-24T17:10:49.462Z,73.37
2019-01-24T17:13:54.649Z,77.60
2019-01-24T17:16:59.870Z,84.50
2019-01-24T17:20:25.722Z,75.17
2019-01-24T17:23:30.962Z,74.90
2019-01-24T17:26:36.130Z,74.10
2019-01-24T17:29:41.335Z,77.87
2019-01-24T17:32:46.800Z,77.80
2019-01-24T17:35:51.998Z,72.00
2019-01-24T17:39:00.729Z,77.20
2019-01-24T17:42:07.664Z,72.83
2019-01-24T17:45:14.019Z,72.80
2019-01-24T17:48:19.251Z,81.87
2019-01-24T17:51:24.445Z,79.90
2019-01-24T17:54:29.631Z,74.70
2019-01-24T17:57:34.924Z,66.90
2019-01-24T18:00:43.708Z,74.47
2019-01-24T18:03:49.040Z,77.97
2019-01-24T18:06:54.294Z,74.83
2019-01-24T18:09:59.433Z,77.43
2019-01-24T18:13:04.613Z,69.30
2019-01-24T18:16:09.812Z,71.37
2019-01-24T18:19:15.058Z,79.13
2019-01-24T18:22:20.309Z,72.00
2019-01-24T18:25:25.503Z,70.67
2019-01-24T18:28:30.649Z,64.23
2019-01-24T18:31:35.830Z,65.47
2019-01-24T18:34:40.953Z,63.83
2019-01-24T18:37:46.185Z,65.83
2019-01-24T18:40:51.368Z,69.00
2019-01-24T18:43:56.581Z,68.93
2019-01-24T18:47:01.789Z,59.53
2019-01-24T18:50:10.174Z,65.93
2019-01-24T18:53:15.352Z,81.93
2019-01-24T18:56:20.568Z,62.00
2019-01-24T18:59:25.751Z,63.67
2019-01-24T19:02:30.998Z,67.47
2019-01-24T19:05:36.118Z,63.03
2019-01-24T19:08:45.843Z,61.37
2019-01-24T19:11:48.448Z,63.03
2019-01-24T19:14:53.608Z,70.13
2019-01-24T19:17:58.873Z,64.00
2019-01-24T19:21:04.423Z,63.20
2019-01-24T19:24:09.657Z,64.50
2019-01-24T19:27:14.892Z,60.57
2019-01-24T19:30:25.669Z,63.73
2019-01-24T19:33:30.859Z,63.57
2019-01-24T19:36:36.240Z,65.50
2019-01-24T19:39:41.424Z,65.90
2019-01-24T19:42:46.633Z,63.20
2019-01-24T19:45:52.011Z,65.47
2019-01-24T19:48:57.220Z,70.07
2019-01-24T19:52:02.383Z,65.87
2019-01-24T19:55:08.622Z,61.80
2019-01-24T19:58:13.794Z,67.53
2019-01-24T20:01:18.944Z,69.93
2019-01-24T20:04:24.090Z,64.43
2019-01-24T20:07:29.304Z,70.73
2019-01-24T20:10:35.513Z,71.33
2019-01-24T20:13:42.794Z,65.07
2019-01-24T20:16:47.669Z,64.77
2019-01-24T20:19:53.025Z,69.70
2019-01-24T20:22:58.185Z,67.63
2019-01-24T20:26:03.335Z,60.97
2019-01-24T20:29:08.511Z,66.00
2019-01-24T20:32:13.692Z,67.43
2019-01-24T20:35:21.529Z,67.27
2019-01-24T20:38:26.738Z,66.77
2019-01-24T20:41:31.885Z,68.20
2019-01-24T20:44:37.083Z,62.00
2019-01-24T20:47:42.193Z,63.23
2019-01-24T20:50:48.467Z,68.30
2019-01-24T20:53:53.733Z,61.03
2019-01-24T20:56:58.935Z,72.50
2019-01-24T21:00:05.731Z,71.80
2019-01-24T21:03:10.939Z,66.03
2019-01-24T21:06:17.289Z,76.67
2019-01-24T21:09:22.440Z,71.20
2019-01-24T21:12:27.620Z,70.20
2019-01-24T21:15:32.786Z,67.33
2019-01-24T21:18:37.983Z,66.80
2019-01-24T21:21:43.193Z,66.27
2019-01-24T21:24:48.293Z,67.63
2019-01-24T21:27:53.466Z,67.10
2019-01-24T21:30:58.664Z,61.43
2019-01-24T21:34:03.763Z,69.10
2019-01-24T21:37:10.509Z,63.03
2019-01-24T21:40:17.703Z,67.00
2019-01-24T21:43:22.787Z,65.87
2019-01-24T21:46:28.085Z,58.23
2019-01-24T21:49:33.224Z,64.00
2019-01-24T21:52:38.459Z,63.67
2019-01-24T21:55:43.597Z,62.53
2019-01-24T21:58:48.849Z,65.03
2019-01-24T22:01:54.017Z,70.37
2019-01-24T22:04:59.238Z,70.67
2019-01-24T22:08:04.719Z,62.33
2019-01-24T22:11:09.915Z,67.73
2019-01-24T22:14:15.095Z,62.87
2019-01-24T22:17:20.355Z,68.93
2019-01-24T22:20:25.490Z,68.67
2019-01-24T22:23:30.629Z,62.27
2019-01-24T22:26:35.838Z,59.73
2019-01-24T22:29:40.983Z,67.27
2019-01-24T22:32:46.146Z,65.93
2019-01-24T22:35:51.266Z,62.07
2019-01-24T22:38:56.416Z,60.50
2019-01-24T22:42:01.607Z,67.30
2019-01-24T22:45:08.190Z,71.00
2019-01-24T22:48:13.377Z,57.93
2019-01-24T22:51:18.570Z,75.03
2019-01-24T22:54:23.729Z,67.20
2019-01-24T22:57:28.939Z,65.93
2019-01-24T23:01:14.564Z,60.47
2019-01-24T23:04:24.806Z,62.50
2019-01-24T23:07:29.946Z,56.87
2019-01-24T23:10:35.057Z,59.80
2019-01-24T23:13:40.238Z,55.93
2019-01-24T23:16:45.407Z,62.53
2019-01-24T23:19:50.568Z,58.73
2019-01-24T23:22:55.731Z,58.50
2019-01-24T23:26:00.924Z,61.33
2019-01-24T23:29:06.425Z,60.00
2019-01-24T23:32:11.711Z,63.00
2019-01-24T23:35:16.989Z,55.30
2019-01-24T23:38:22.292Z,66.23
2019-01-24T23:41:27.459Z,63.17
2019-01-24T23:44:32.633Z,55.10
2019-01-24T23:47:37.864Z,66.50
2019-01-24T23:50:42.997Z,63.43
2019-01-24T23:53:48.220Z,61.27
2019-01-24T23:56:53.364Z,60.03
2019-01-24T23:59:58.591Z,61.90
